sensor_id;sensor_type;location;lat;lon;timestamp;temperature;humidity
14401;DHT22;7285;50.894;5.462;2022-09-01T00:01:37;18.60;86.90
14401;DHT22;7285;50.894;5.462;2022-09-01T00:04:06;18.50;94.30
14401;DHT22;7285;50.894;5.462;2022-09-01T00:06:35;18.50;92.40
14401;DHT22;7285;50.894;5.462;2022-09-01T00:09:08;18.50;88.40
14401;DHT22;7285;50.894;5.462;2022-09-01T00:11:36;18.40;91.00
14401;DHT22;7285;50.894;5.462;2022-09-01T00:14:03;18.30;82.50
14401;DHT22;7285;50.894;5.462;2022-09-01T00:16:33;18.30;90.50
14401;DHT22;7285;50.894;5.462;2022-09-01T00:19:00;18.20;91.80
14401;DHT22;7285;50.894;5.462;2022-09-01T00:21:31;18.20;90.00
14401;DHT22;7285;50.894;5.462;2022-09-01T00:23:59;18.20;95.60
14401;DHT22;7285;50.894;5.462;2022-09-01T00:26:26;18.10;93.40
14401;DHT22;7285;50.894;5.462;2022-09-01T00:28:53;18.10;98.70
14401;DHT22;7285;50.894;5.462;2022-09-01T00:31:21;18.00;96.00
14401;DHT22;7285;50.894;5.462;2022-09-01T00:33:50;18.00;97.60
14401;DHT22;7285;50.894;5.462;2022-09-01T00:36:18;17.90;97.40
14401;DHT22;7285;50.894;5.462;2022-09-01T00:38:46;17.80;96.80
14401;DHT22;7285;50.894;5.462;2022-09-01T00:41:13;17.80;99.40
14401;DHT22;7285;50.894;5.462;2022-09-01T00:43:42;17.80;99.90
14401;DHT22;7285;50.894;5.462;2022-09-01T00:46:13;17.70;99.90
14401;DHT22;7285;50.894;5.462;2022-09-01T00:48:40;17.70;99.90
14401;DHT22;7285;50.894;5.462;2022-09-01T00:51:10;17.60;99.90
14401;DHT22;7285;50.894;5.462;2022-09-01T00:53:39;17.50;99.90
14401;DHT22;7285;50.894;5.462;2022-09-01T00:56:07;17.50;99.90
14401;DHT22;7285;50.894;5.462;2022-09-01T00:58:35;17.50;99.90
14401;DHT22;7285;50.894;5.462;2022-09-01T01:01:04;17.40;99.90
14401;DHT22;7285;50.894;5.462;2022-09-01T01:03:31;17.40;99.90
14401;DHT22;7285;50.894;5.462;2022-09-01T01:06:02;17.30;99.90
14401;DHT22;7285;50.894;5.462;2022-09-01T01:08:36;17.30;99.90
14401;DHT22;7285;50.894;5.462;2022-09-01T01:11:06;17.20;99.90
14401;DHT22;7285;50.894;5.462;2022-09-01T01:13:46;17.00;99.90
14401;DHT22;7285;50.894;5.462;2022-09-01T01:16:16;16.90;99.90
14401;DHT22;7285;50.894;5.462;2022-09-01T01:18:43;16.80;99.90
14401;DHT22;7285;50.894;5.462;2022-09-01T01:21:17;16.70;99.90
14401;DHT22;7285;50.894;5.462;2022-09-01T01:24:08;16.70;99.90
14401;DHT22;7285;50.894;5.462;2022-09-01T01:26:37;16.60;99.90
14401;DHT22;7285;50.894;5.462;2022-09-01T01:29:05;16.50;99.90
14401;DHT22;7285;50.894;5.462;2022-09-01T01:31:34;16.50;99.90
14401;DHT22;7285;50.894;5.462;2022-09-01T01:34:03;16.50;99.90
14401;DHT22;7285;50.894;5.462;2022-09-01T01:36:35;16.50;99.90
14401;DHT22;7285;50.894;5.462;2022-09-01T01:39:05;16.40;99.90
14401;DHT22;7285;50.894;5.462;2022-09-01T01:41:34;16.40;99.90
14401;DHT22;7285;50.894;5.462;2022-09-01T01:44:03;16.40;99.90
14401;DHT22;7285;50.894;5.462;2022-09-01T01:46:31;16.30;99.90
14401;DHT22;7285;50.894;5.462;2022-09-01T01:48:59;16.30;99.90
14401;DHT22;7285;50.894;5.462;2022-09-01T01:51:28;16.30;99.90
14401;DHT22;7285;50.894;5.462;2022-09-01T01:53:57;16.20;99.90
14401;DHT22;7285;50.894;5.462;2022-09-01T01:56:26;16.20;99.90
14401;DHT22;7285;50.894;5.462;2022-09-01T01:58:54;16.10;99.90
14401;DHT22;7285;50.894;5.462;2022-09-01T02:01:26;16.10;99.90
14401;DHT22;7285;50.894;5.462;2022-09-01T02:03:54;16.00;99.90
14401;DHT22;7285;50.894;5.462;2022-09-01T02:06:22;16.00;99.90
14401;DHT22;7285;50.894;5.462;2022-09-01T02:08:51;15.90;99.90
14401;DHT22;7285;50.894;5.462;2022-09-01T02:11:21;15.80;99.90
14401;DHT22;7285;50.894;5.462;2022-09-01T02:13:48;15.70;99.90
14401;DHT22;7285;50.894;5.462;2022-09-01T02:16:23;15.70;99.90
14401;DHT22;7285;50.894;5.462;2022-09-01T02:18:51;15.70;99.90
14401;DHT22;7285;50.894;5.462;2022-09-01T02:21:21;15.70;99.90
14401;DHT22;7285;50.894;5.462;2022-09-01T02:23:50;15.60;99.90
14401;DHT22;7285;50.894;5.462;2022-09-01T02:26:22;15.60;99.90
14401;DHT22;7285;50.894;5.462;2022-09-01T02:28:54;15.60;99.90
14401;DHT22;7285;50.894;5.462;2022-09-01T02:31:23;15.60;99.90
14401;DHT22;7285;50.894;5.462;2022-09-01T02:33:52;15.50;99.90
14401;DHT22;7285;50.894;5.462;2022-09-01T02:36:20;15.50;99.90
14401;DHT22;7285;50.894;5.462;2022-09-01T02:38:50;15.40;99.90
14401;DHT22;7285;50.894;5.462;2022-09-01T02:41:17;15.50;99.90
14401;DHT22;7285;50.894;5.462;2022-09-01T02:43:46;15.40;99.90
14401;DHT22;7285;50.894;5.462;2022-09-01T02:46:13;15.30;99.90
14401;DHT22;7285;50.894;5.462;2022-09-01T02:48:43;15.20;99.90
14401;DHT22;7285;50.894;5.462;2022-09-01T02:51:13;15.10;99.90
14401;DHT22;7285;50.894;5.462;2022-09-01T02:53:41;15.10;99.90
14401;DHT22;7285;50.894;5.462;2022-09-01T02:56:10;15.00;99.90
14401;DHT22;7285;50.894;5.462;2022-09-01T02:58:40;15.00;99.90
14401;DHT22;7285;50.894;5.462;2022-09-01T03:01:12;15.00;99.90
14401;DHT22;7285;50.894;5.462;2022-09-01T03:03:41;15.10;99.90
14401;DHT22;7285;50.894;5.462;2022-09-01T03:06:08;15.00;99.90
14401;DHT22;7285;50.894;5.462;2022-09-01T03:08:37;15.00;99.90
14401;DHT22;7285;50.894;5.462;2022-09-01T03:11:05;15.00;99.90
14401;DHT22;7285;50.894;5.462;2022-09-01T03:13:36;15.00;99.90
14401;DHT22;7285;50.894;5.462;2022-09-01T03:16:03;15.00;99.90
14401;DHT22;7285;50.894;5.462;2022-09-01T03:18:30;15.00;99.90
14401;DHT22;7285;50.894;5.462;2022-09-01T03:20:59;15.00;99.90
14401;DHT22;7285;50.894;5.462;2022-09-01T03:23:28;15.00;99.90
14401;DHT22;7285;50.894;5.462;2022-09-01T03:25:56;15.00;99.90
14401;DHT22;7285;50.894;5.462;2022-09-01T03:28:24;14.90;99.90
14401;DHT22;7285;50.894;5.462;2022-09-01T03:30:53;15.00;99.90
14401;DHT22;7285;50.894;5.462;2022-09-01T03:33:21;15.00;99.90
14401;DHT22;7285;50.894;5.462;2022-09-01T03:35:49;14.90;99.90
14401;DHT22;7285;50.894;5.462;2022-09-01T03:38:18;14.80;99.90
14401;DHT22;7285;50.894;5.462;2022-09-01T03:40:48;14.80;99.90
14401;DHT22;7285;50.894;5.462;2022-09-01T03:43:15;14.80;99.90
14401;DHT22;7285;50.894;5.462;2022-09-01T03:45:44;14.70;99.90
14401;DHT22;7285;50.894;5.462;2022-09-01T03:48:11;14.60;99.90
14401;DHT22;7285;50.894;5.462;2022-09-01T03:50:43;14.50;99.90
14401;DHT22;7285;50.894;5.462;2022-09-01T03:53:14;14.50;99.90
14401;DHT22;7285;50.894;5.462;2022-09-01T03:55:44;14.40;99.90
14401;DHT22;7285;50.894;5.462;2022-09-01T03:58:13;14.40;99.90
14401;DHT22;7285;50.894;5.462;2022-09-01T04:00:46;14.30;99.90
14401;DHT22;7285;50.894;5.462;2022-09-01T04:03:15;14.30;99.90
14401;DHT22;7285;50.894;5.462;2022-09-01T04:05:47;14.30;99.90
14401;DHT22;7285;50.894;5.462;2022-09-01T04:08:16;14.20;99.90
14401;DHT22;7285;50.894;5.462;2022-09-01T04:10:46;14.20;99.90
14401;DHT22;7285;50.894;5.462;2022-09-01T04:13:16;14.20;99.90
14401;DHT22;7285;50.894;5.462;2022-09-01T04:15:44;14.20;99.90
14401;DHT22;7285;50.894;5.462;2022-09-01T04:18:11;14.10;99.90
14401;DHT22;7285;50.894;5.462;2022-09-01T04:20:46;14.10;99.90
14401;DHT22;7285;50.894;5.462;2022-09-01T04:23:19;14.10;99.90
14401;DHT22;7285;50.894;5.462;2022-09-01T04:25:54;14.10;1.00
14401;DHT22;7285;50.894;5.462;2022-09-01T04:28:23;14.10;1.00
14401;DHT22;7285;50.894;5.462;2022-09-01T04:30:52;14.10;1.00
14401;DHT22;7285;50.894;5.462;2022-09-01T04:33:21;14.00;1.00
14401;DHT22;7285;50.894;5.462;2022-09-01T04:35:49;14.00;1.00
14401;DHT22;7285;50.894;5.462;2022-09-01T04:38:20;14.00;1.00
14401;DHT22;7285;50.894;5.462;2022-09-01T04:40:47;14.00;1.00
14401;DHT22;7285;50.894;5.462;2022-09-01T04:43:16;13.90;1.00
14401;DHT22;7285;50.894;5.462;2022-09-01T04:45:45;13.90;1.00
14401;DHT22;7285;50.894;5.462;2022-09-01T04:48:14;13.90;1.00
14401;DHT22;7285;50.894;5.462;2022-09-01T04:50:42;13.80;1.00
14401;DHT22;7285;50.894;5.462;2022-09-01T04:53:09;13.90;1.00
14401;DHT22;7285;50.894;5.462;2022-09-01T04:55:38;13.90;1.00
14401;DHT22;7285;50.894;5.462;2022-09-01T04:58:05;13.90;1.00
14401;DHT22;7285;50.894;5.462;2022-09-01T05:00:33;13.80;1.00
14401;DHT22;7285;50.894;5.462;2022-09-01T05:03:02;13.80;1.00
14401;DHT22;7285;50.894;5.462;2022-09-01T05:05:35;13.80;1.00
14401;DHT22;7285;50.894;5.462;2022-09-01T05:08:04;13.80;1.00
14401;DHT22;7285;50.894;5.462;2022-09-01T05:10:32;13.80;1.00
14401;DHT22;7285;50.894;5.462;2022-09-01T05:13:02;13.70;1.00
14401;DHT22;7285;50.894;5.462;2022-09-01T05:15:36;13.60;1.00
14401;DHT22;7285;50.894;5.462;2022-09-01T05:18:03;13.60;1.00
14401;DHT22;7285;50.894;5.462;2022-09-01T05:20:36;13.60;1.00
14401;DHT22;7285;50.894;5.462;2022-09-01T05:23:06;13.60;1.00
14401;DHT22;7285;50.894;5.462;2022-09-01T05:25:37;13.60;1.00
14401;DHT22;7285;50.894;5.462;2022-09-01T05:28:05;13.60;1.00
14401;DHT22;7285;50.894;5.462;2022-09-01T05:30:35;13.60;1.00
14401;DHT22;7285;50.894;5.462;2022-09-01T05:33:03;13.70;1.00
14401;DHT22;7285;50.894;5.462;2022-09-01T05:35:35;13.80;1.00
14401;DHT22;7285;50.894;5.462;2022-09-01T05:38:03;13.90;1.00
14401;DHT22;7285;50.894;5.462;2022-09-01T05:40:33;13.90;1.00
14401;DHT22;7285;50.894;5.462;2022-09-01T05:43:01;14.00;1.00
14401;DHT22;7285;50.894;5.462;2022-09-01T05:45:28;14.20;1.00
14401;DHT22;7285;50.894;5.462;2022-09-01T05:47:57;14.30;1.00
14401;DHT22;7285;50.894;5.462;2022-09-01T05:50:25;14.40;1.00
14401;DHT22;7285;50.894;5.462;2022-09-01T05:52:52;14.50;1.00
14401;DHT22;7285;50.894;5.462;2022-09-01T05:55:20;14.60;1.00
14401;DHT22;7285;50.894;5.462;2022-09-01T05:57:47;14.70;1.00
14401;DHT22;7285;50.894;5.462;2022-09-01T06:00:14;14.80;1.00
14401;DHT22;7285;50.894;5.462;2022-09-01T06:02:42;15.00;1.00
14401;DHT22;7285;50.894;5.462;2022-09-01T06:05:11;15.10;1.00
14401;DHT22;7285;50.894;5.462;2022-09-01T06:07:39;15.20;1.00
14401;DHT22;7285;50.894;5.462;2022-09-01T06:10:07;15.30;1.00
14401;DHT22;7285;50.894;5.462;2022-09-01T06:12:34;15.40;1.00
14401;DHT22;7285;50.894;5.462;2022-09-01T06:15:02;15.50;1.00
14401;DHT22;7285;50.894;5.462;2022-09-01T06:17:31;15.60;1.00
14401;DHT22;7285;50.894;5.462;2022-09-01T06:19:59;15.80;99.90
14401;DHT22;7285;50.894;5.462;2022-09-01T06:22:28;15.90;99.90
14401;DHT22;7285;50.894;5.462;2022-09-01T06:24:55;16.00;99.90
14401;DHT22;7285;50.894;5.462;2022-09-01T06:27:24;16.10;99.90
14401;DHT22;7285;50.894;5.462;2022-09-01T06:29:51;16.20;99.90
14401;DHT22;7285;50.894;5.462;2022-09-01T06:32:19;16.40;99.90
14401;DHT22;7285;50.894;5.462;2022-09-01T06:34:46;16.50;99.90
14401;DHT22;7285;50.894;5.462;2022-09-01T06:37:16;16.60;99.90
14401;DHT22;7285;50.894;5.462;2022-09-01T06:39:48;16.70;99.90
14401;DHT22;7285;50.894;5.462;2022-09-01T06:42:16;16.80;99.90
14401;DHT22;7285;50.894;5.462;2022-09-01T06:44:43;16.90;99.90
14401;DHT22;7285;50.894;5.462;2022-09-01T06:47:11;17.00;99.90
14401;DHT22;7285;50.894;5.462;2022-09-01T06:49:39;17.20;99.90
14401;DHT22;7285;50.894;5.462;2022-09-01T06:52:07;17.30;99.90
14401;DHT22;7285;50.894;5.462;2022-09-01T06:54:34;17.40;99.90
14401;DHT22;7285;50.894;5.462;2022-09-01T06:57:05;17.50;99.90
14401;DHT22;7285;50.894;5.462;2022-09-01T06:59:32;17.60;99.90
14401;DHT22;7285;50.894;5.462;2022-09-01T07:02:00;17.80;99.90
14401;DHT22;7285;50.894;5.462;2022-09-01T07:04:28;17.90;99.90
14401;DHT22;7285;50.894;5.462;2022-09-01T07:06:56;18.00;99.90
14401;DHT22;7285;50.894;5.462;2022-09-01T07:09:23;18.10;99.90
14401;DHT22;7285;50.894;5.462;2022-09-01T07:11:50;18.10;99.90
14401;DHT22;7285;50.894;5.462;2022-09-01T07:14:21;18.20;99.90
14401;DHT22;7285;50.894;5.462;2022-09-01T07:16:48;18.40;99.90
14401;DHT22;7285;50.894;5.462;2022-09-01T07:19:15;18.50;99.90
14401;DHT22;7285;50.894;5.462;2022-09-01T07:21:43;18.60;99.90
14401;DHT22;7285;50.894;5.462;2022-09-01T07:24:11;18.60;99.90
14401;DHT22;7285;50.894;5.462;2022-09-01T07:26:41;18.70;99.90
14401;DHT22;7285;50.894;5.462;2022-09-01T07:29:07;18.80;99.90
14401;DHT22;7285;50.894;5.462;2022-09-01T07:31:39;19.00;99.90
14401;DHT22;7285;50.894;5.462;2022-09-01T07:34:10;19.00;99.90
14401;DHT22;7285;50.894;5.462;2022-09-01T07:36:39;19.20;99.90
14401;DHT22;7285;50.894;5.462;2022-09-01T07:39:08;19.20;99.90
14401;DHT22;7285;50.894;5.462;2022-09-01T07:41:35;19.30;99.90
14401;DHT22;7285;50.894;5.462;2022-09-01T07:44:03;19.40;99.90
14401;DHT22;7285;50.894;5.462;2022-09-01T07:46:30;19.60;99.90
14401;DHT22;7285;50.894;5.462;2022-09-01T07:49:00;19.70;99.90
14401;DHT22;7285;50.894;5.462;2022-09-01T07:51:28;19.80;99.90
14401;DHT22;7285;50.894;5.462;2022-09-01T07:53:57;19.90;99.90
14401;DHT22;7285;50.894;5.462;2022-09-01T07:56:27;20.00;99.90
14401;DHT22;7285;50.894;5.462;2022-09-01T07:58:56;20.20;99.90
14401;DHT22;7285;50.894;5.462;2022-09-01T08:01:25;20.20;99.90
14401;DHT22;7285;50.894;5.462;2022-09-01T08:03:54;20.30;99.90
14401;DHT22;7285;50.894;5.462;2022-09-01T08:06:26;20.40;99.90
14401;DHT22;7285;50.894;5.462;2022-09-01T08:08:54;20.60;99.90
14401;DHT22;7285;50.894;5.462;2022-09-01T08:11:23;20.70;99.90
14401;DHT22;7285;50.894;5.462;2022-09-01T08:13:51;20.80;99.90
14401;DHT22;7285;50.894;5.462;2022-09-01T08:16:19;20.90;99.90
14401;DHT22;7285;50.894;5.462;2022-09-01T08:18:47;21.10;99.90
14401;DHT22;7285;50.894;5.462;2022-09-01T08:21:15;21.10;99.90
14401;DHT22;7285;50.894;5.462;2022-09-01T08:23:44;21.20;99.90
14401;DHT22;7285;50.894;5.462;2022-09-01T08:26:14;21.20;99.90
14401;DHT22;7285;50.894;5.462;2022-09-01T08:28:41;21.30;99.90
14401;DHT22;7285;50.894;5.462;2022-09-01T08:31:09;21.40;99.90
14401;DHT22;7285;50.894;5.462;2022-09-01T08:33:37;21.60;99.90
14401;DHT22;7285;50.894;5.462;2022-09-01T08:36:06;21.70;99.90
14401;DHT22;7285;50.894;5.462;2022-09-01T08:38:34;21.70;98.00
14401;DHT22;7285;50.894;5.462;2022-09-01T08:41:04;21.90;99.90
14401;DHT22;7285;50.894;5.462;2022-09-01T08:43:40;22.00;97.60
14401;DHT22;7285;50.894;5.462;2022-09-01T08:46:14;22.20;97.70
14401;DHT22;7285;50.894;5.462;2022-09-01T08:48:47;22.20;98.30
14401;DHT22;7285;50.894;5.462;2022-09-01T08:51:20;22.40;99.90
14401;DHT22;7285;50.894;5.462;2022-09-01T08:53:55;22.50;97.60
14401;DHT22;7285;50.894;5.462;2022-09-01T08:56:26;22.50;95.00
14401;DHT22;7285;50.894;5.462;2022-09-01T08:58:54;22.60;76.30
14401;DHT22;7285;50.894;5.462;2022-09-01T09:01:26;22.70;95.10
14401;DHT22;7285;50.894;5.462;2022-09-01T09:04:07;22.90;99.30
14401;DHT22;7285;50.894;5.462;2022-09-01T09:06:41;23.00;99.90
14401;DHT22;7285;50.894;5.462;2022-09-01T09:09:11;23.20;82.60
14401;DHT22;7285;50.894;5.462;2022-09-01T09:14:59;23.50;67.00
14401;DHT22;7285;50.894;5.462;2022-09-01T09:17:31;23.50;60.50
14401;DHT22;7285;50.894;5.462;2022-09-01T09:20:00;23.70;61.40
14401;DHT22;7285;50.894;5.462;2022-09-01T09:22:27;23.70;57.20
14401;DHT22;7285;50.894;5.462;2022-09-01T09:25:00;23.60;53.00
14401;DHT22;7285;50.894;5.462;2022-09-01T09:27:29;23.60;49.30
14401;DHT22;7285;50.894;5.462;2022-09-01T09:30:00;23.70;40.00
14401;DHT22;7285;50.894;5.462;2022-09-01T09:32:44;23.80;44.40
14401;DHT22;7285;50.894;5.462;2022-09-01T09:35:24;23.90;37.00
14401;DHT22;7285;50.894;5.462;2022-09-01T09:37:52;24.10;60.30
14401;DHT22;7285;50.894;5.462;2022-09-01T09:40:21;24.30;51.50
14401;DHT22;7285;50.894;5.462;2022-09-01T09:43:05;24.40;49.40
14401;DHT22;7285;50.894;5.462;2022-09-01T09:45:35;24.40;36.90
14401;DHT22;7285;50.894;5.462;2022-09-01T09:48:06;24.70;41.30
14401;DHT22;7285;50.894;5.462;2022-09-01T09:50:36;24.80;40.20
14401;DHT22;7285;50.894;5.462;2022-09-01T09:53:17;24.70;25.30
14401;DHT22;7285;50.894;5.462;2022-09-01T09:55:59;24.90;28.80
14401;DHT22;7285;50.894;5.462;2022-09-01T09:58:32;25.10;21.50
14401;DHT22;7285;50.894;5.462;2022-09-01T10:01:05;25.30;19.40
14401;DHT22;7285;50.894;5.462;2022-09-01T10:03:34;25.40;21.30
14401;DHT22;7285;50.894;5.462;2022-09-01T10:06:01;25.40;54.40
14401;DHT22;7285;50.894;5.462;2022-09-01T10:08:38;25.40;37.70
14401;DHT22;7285;50.894;5.462;2022-09-01T10:11:11;25.60;36.00
14401;DHT22;7285;50.894;5.462;2022-09-01T10:13:51;25.70;37.30
14401;DHT22;7285;50.894;5.462;2022-09-01T10:16:24;25.90;26.70
14401;DHT22;7285;50.894;5.462;2022-09-01T10:18:53;26.20;54.10
14401;DHT22;7285;50.894;5.462;2022-09-01T10:21:28;26.20;24.40
14401;DHT22;7285;50.894;5.462;2022-09-01T10:23:56;26.20;42.10
14401;DHT22;7285;50.894;5.462;2022-09-01T10:26:27;26.10;13.70
14401;DHT22;7285;50.894;5.462;2022-09-01T10:28:58;26.30;4.00
14401;DHT22;7285;50.894;5.462;2022-09-01T10:31:28;25.60;1.00
14401;DHT22;7285;50.894;5.462;2022-09-01T10:33:55;25.80;1.00
14401;DHT22;7285;50.894;5.462;2022-09-01T10:36:24;25.90;1.00
14401;DHT22;7285;50.894;5.462;2022-09-01T10:38:51;26.20;1.00
14401;DHT22;7285;50.894;5.462;2022-09-01T10:41:45;26.40;1.00
14401;DHT22;7285;50.894;5.462;2022-09-01T10:44:19;26.40;1.00
14401;DHT22;7285;50.894;5.462;2022-09-01T10:46:49;26.70;1.00
14401;DHT22;7285;50.894;5.462;2022-09-01T10:55:30;27.30;1.00
14401;DHT22;7285;50.894;5.462;2022-09-01T10:58:22;27.30;1.00
14401;DHT22;7285;50.894;5.462;2022-09-01T11:00:51;26.90;1.00
14401;DHT22;7285;50.894;5.462;2022-09-01T11:03:54;26.60;1.00
14401;DHT22;7285;50.894;5.462;2022-09-01T11:06:48;27.30;1.00
14401;DHT22;7285;50.894;5.462;2022-09-01T11:09:21;27.60;1.00
14401;DHT22;7285;50.894;5.462;2022-09-01T11:14:48;27.40;1.00
14401;DHT22;7285;50.894;5.462;2022-09-01T11:17:17;27.70;1.00
14401;DHT22;7285;50.894;5.462;2022-09-01T11:19:54;27.90;1.00
14401;DHT22;7285;50.894;5.462;2022-09-01T11:22:27;27.60;1.00
14401;DHT22;7285;50.894;5.462;2022-09-01T11:28:06;27.90;1.00
14401;DHT22;7285;50.894;5.462;2022-09-01T11:30:42;28.30;1.00
14401;DHT22;7285;50.894;5.462;2022-09-01T11:33:37;28.10;1.00
14401;DHT22;7285;50.894;5.462;2022-09-01T11:36:15;27.90;1.00
14401;DHT22;7285;50.894;5.462;2022-09-01T11:38:49;28.50;1.00
14401;DHT22;7285;50.894;5.462;2022-09-01T11:41:21;28.20;1.00
14401;DHT22;7285;50.894;5.462;2022-09-01T11:43:51;28.40;1.00
14401;DHT22;7285;50.894;5.462;2022-09-01T11:46:22;28.60;1.00
14401;DHT22;7285;50.894;5.462;2022-09-01T11:48:50;28.70;1.00
14401;DHT22;7285;50.894;5.462;2022-09-01T11:51:19;28.80;1.00
14401;DHT22;7285;50.894;5.462;2022-09-01T11:53:46;29.30;1.00
14401;DHT22;7285;50.894;5.462;2022-09-01T11:56:17;29.20;1.00
14401;DHT22;7285;50.894;5.462;2022-09-01T11:58:44;28.50;1.00
14401;DHT22;7285;50.894;5.462;2022-09-01T12:01:15;28.80;1.00
14401;DHT22;7285;50.894;5.462;2022-09-01T12:03:42;28.80;1.00
14401;DHT22;7285;50.894;5.462;2022-09-01T12:06:17;28.50;1.00
14401;DHT22;7285;50.894;5.462;2022-09-01T12:08:53;28.40;1.00
14401;DHT22;7285;50.894;5.462;2022-09-01T12:11:23;28.80;1.00
14401;DHT22;7285;50.894;5.462;2022-09-01T12:14:00;28.70;1.00
14401;DHT22;7285;50.894;5.462;2022-09-01T12:16:28;28.70;1.00
14401;DHT22;7285;50.894;5.462;2022-09-01T12:18:57;28.90;1.00
14401;DHT22;7285;50.894;5.462;2022-09-01T12:21:26;28.90;1.00
14401;DHT22;7285;50.894;5.462;2022-09-01T12:24:09;29.10;1.00
14401;DHT22;7285;50.894;5.462;2022-09-01T12:26:38;29.50;1.00
14401;DHT22;7285;50.894;5.462;2022-09-01T12:29:05;29.10;1.00
14401;DHT22;7285;50.894;5.462;2022-09-01T12:31:33;29.10;1.00
14401;DHT22;7285;50.894;5.462;2022-09-01T12:34:00;29.10;1.00
14401;DHT22;7285;50.894;5.462;2022-09-01T12:36:30;29.10;1.00
14401;DHT22;7285;50.894;5.462;2022-09-01T12:39:18;29.20;1.00
14401;DHT22;7285;50.894;5.462;2022-09-01T12:41:46;29.10;1.00
14401;DHT22;7285;50.894;5.462;2022-09-01T12:44:28;28.90;1.00
14401;DHT22;7285;50.894;5.462;2022-09-01T12:46:56;29.40;1.00
14401;DHT22;7285;50.894;5.462;2022-09-01T12:49:25;29.80;1.00
14401;DHT22;7285;50.894;5.462;2022-09-01T12:52:23;29.50;1.00
14401;DHT22;7285;50.894;5.462;2022-09-01T12:55:06;29.80;1.00
14401;DHT22;7285;50.894;5.462;2022-09-01T12:57:36;29.80;1.00
14401;DHT22;7285;50.894;5.462;2022-09-01T13:00:16;29.60;1.00
14401;DHT22;7285;50.894;5.462;2022-09-01T13:02:45;30.30;1.00
14401;DHT22;7285;50.894;5.462;2022-09-01T13:05:25;30.70;1.00
14401;DHT22;7285;50.894;5.462;2022-09-01T13:07:54;30.20;1.00
14401;DHT22;7285;50.894;5.462;2022-09-01T13:10:24;30.40;1.00
14401;DHT22;7285;50.894;5.462;2022-09-01T13:12:53;30.80;1.00
14401;DHT22;7285;50.894;5.462;2022-09-01T13:15:20;31.10;1.00
14401;DHT22;7285;50.894;5.462;2022-09-01T13:17:47;30.80;1.00
14401;DHT22;7285;50.894;5.462;2022-09-01T13:20:14;31.10;1.00
14401;DHT22;7285;50.894;5.462;2022-09-01T13:22:41;31.30;1.00
14401;DHT22;7285;50.894;5.462;2022-09-01T13:25:10;31.00;1.00
14401;DHT22;7285;50.894;5.462;2022-09-01T13:27:39;31.00;1.00
14401;DHT22;7285;50.894;5.462;2022-09-01T13:30:09;31.60;1.00
14401;DHT22;7285;50.894;5.462;2022-09-01T13:32:36;31.20;1.00
14401;DHT22;7285;50.894;5.462;2022-09-01T13:35:04;30.70;1.00
14401;DHT22;7285;50.894;5.462;2022-09-01T13:37:31;30.70;1.00
14401;DHT22;7285;50.894;5.462;2022-09-01T13:39:58;30.90;1.00
14401;DHT22;7285;50.894;5.462;2022-09-01T13:42:25;30.40;1.00
14401;DHT22;7285;50.894;5.462;2022-09-01T13:44:53;29.90;1.00
14401;DHT22;7285;50.894;5.462;2022-09-01T13:47:20;30.00;1.00
14401;DHT22;7285;50.894;5.462;2022-09-01T13:49:49;29.80;1.00
14401;DHT22;7285;50.894;5.462;2022-09-01T13:52:15;30.10;1.00
14401;DHT22;7285;50.894;5.462;2022-09-01T13:54:43;29.80;1.00
14401;DHT22;7285;50.894;5.462;2022-09-01T13:57:10;30.10;1.00
14401;DHT22;7285;50.894;5.462;2022-09-01T13:59:38;29.90;1.00
14401;DHT22;7285;50.894;5.462;2022-09-01T14:02:07;30.00;1.00
14401;DHT22;7285;50.894;5.462;2022-09-01T14:04:35;30.00;1.00
14401;DHT22;7285;50.894;5.462;2022-09-01T14:07:02;29.70;1.00
14401;DHT22;7285;50.894;5.462;2022-09-01T14:09:29;29.20;1.00
14401;DHT22;7285;50.894;5.462;2022-09-01T14:11:56;29.60;1.00
14401;DHT22;7285;50.894;5.462;2022-09-01T14:14:23;29.20;1.00
14401;DHT22;7285;50.894;5.462;2022-09-01T14:16:51;29.60;1.00
14401;DHT22;7285;50.894;5.462;2022-09-01T14:19:19;29.70;1.00
14401;DHT22;7285;50.894;5.462;2022-09-01T14:21:47;29.90;1.00
14401;DHT22;7285;50.894;5.462;2022-09-01T14:24:15;29.60;1.00
14401;DHT22;7285;50.894;5.462;2022-09-01T14:26:44;29.50;1.00
14401;DHT22;7285;50.894;5.462;2022-09-01T14:29:11;29.40;1.00
14401;DHT22;7285;50.894;5.462;2022-09-01T14:31:38;29.70;1.00
14401;DHT22;7285;50.894;5.462;2022-09-01T14:34:06;29.70;1.00
14401;DHT22;7285;50.894;5.462;2022-09-01T14:36:37;29.90;1.00
14401;DHT22;7285;50.894;5.462;2022-09-01T14:39:05;29.70;1.00
14401;DHT22;7285;50.894;5.462;2022-09-01T14:41:32;29.70;1.00
14401;DHT22;7285;50.894;5.462;2022-09-01T14:43:58;29.90;1.00
14401;DHT22;7285;50.894;5.462;2022-09-01T14:46:27;29.80;1.00
14401;DHT22;7285;50.894;5.462;2022-09-01T14:48:55;29.80;1.00
14401;DHT22;7285;50.894;5.462;2022-09-01T14:51:24;29.90;1.00
14401;DHT22;7285;50.894;5.462;2022-09-01T14:53:53;29.80;1.00
14401;DHT22;7285;50.894;5.462;2022-09-01T14:56:21;29.70;1.00
14401;DHT22;7285;50.894;5.462;2022-09-01T14:58:49;29.80;1.00
14401;DHT22;7285;50.894;5.462;2022-09-01T15:01:18;30.00;1.00
14401;DHT22;7285;50.894;5.462;2022-09-01T15:03:47;29.70;1.00
14401;DHT22;7285;50.894;5.462;2022-09-01T15:06:16;29.50;1.00
14401;DHT22;7285;50.894;5.462;2022-09-01T15:08:43;29.70;1.00
14401;DHT22;7285;50.894;5.462;2022-09-01T15:11:13;29.70;1.00
14401;DHT22;7285;50.894;5.462;2022-09-01T15:13:41;29.50;1.00
14401;DHT22;7285;50.894;5.462;2022-09-01T15:16:13;29.70;1.00
14401;DHT22;7285;50.894;5.462;2022-09-01T15:18:40;29.60;1.00
14401;DHT22;7285;50.894;5.462;2022-09-01T15:21:07;29.80;1.00
14401;DHT22;7285;50.894;5.462;2022-09-01T15:23:34;29.60;1.00
14401;DHT22;7285;50.894;5.462;2022-09-01T15:26:01;29.40;1.00
14401;DHT22;7285;50.894;5.462;2022-09-01T15:28:29;29.40;1.00
14401;DHT22;7285;50.894;5.462;2022-09-01T15:30:56;29.50;1.00
14401;DHT22;7285;50.894;5.462;2022-09-01T15:33:24;29.60;1.00
14401;DHT22;7285;50.894;5.462;2022-09-01T15:35:51;29.40;1.00
14401;DHT22;7285;50.894;5.462;2022-09-01T15:38:18;29.50;1.00
14401;DHT22;7285;50.894;5.462;2022-09-01T15:40:46;29.40;1.00
14401;DHT22;7285;50.894;5.462;2022-09-01T15:43:14;29.60;1.00
14401;DHT22;7285;50.894;5.462;2022-09-01T15:45:44;29.10;1.00
14401;DHT22;7285;50.894;5.462;2022-09-01T15:48:11;29.00;1.00
14401;DHT22;7285;50.894;5.462;2022-09-01T15:50:38;29.30;1.00
14401;DHT22;7285;50.894;5.462;2022-09-01T15:53:07;29.70;1.00
14401;DHT22;7285;50.894;5.462;2022-09-01T15:55:39;29.40;1.00
14401;DHT22;7285;50.894;5.462;2022-09-01T15:58:07;29.10;1.00
14401;DHT22;7285;50.894;5.462;2022-09-01T16:00:34;28.90;1.00
14401;DHT22;7285;50.894;5.462;2022-09-01T16:03:02;28.70;1.00
14401;DHT22;7285;50.894;5.462;2022-09-01T16:05:30;28.60;1.00
14401;DHT22;7285;50.894;5.462;2022-09-01T16:07:57;28.50;1.00
14401;DHT22;7285;50.894;5.462;2022-09-01T16:10:26;28.20;1.00
14401;DHT22;7285;50.894;5.462;2022-09-01T16:12:54;28.00;1.00
14401;DHT22;7285;50.894;5.462;2022-09-01T16:15:23;27.50;1.00
14401;DHT22;7285;50.894;5.462;2022-09-01T16:18:00;27.00;1.00
14401;DHT22;7285;50.894;5.462;2022-09-01T16:20:35;26.90;1.00
14401;DHT22;7285;50.894;5.462;2022-09-01T16:23:11;26.70;1.00
14401;DHT22;7285;50.894;5.462;2022-09-01T16:25:39;26.60;1.00